createdAt,value
2022-09-21T00:01:08.172Z,28.70
2022-09-21T00:03:39.661Z,28.50
2022-09-21T00:06:12.222Z,28.40
2022-09-21T00:08:43.193Z,28.40
2022-09-21T00:11:18.469Z,28.30
2022-09-21T00:13:49.631Z,28.30
2022-09-21T00:16:20.531Z,28.20
2022-09-21T00:18:52.030Z,28.10
2022-09-21T00:21:23.136Z,28.10
2022-09-21T00:23:55.138Z,28.10
2022-09-21T00:26:29.314Z,28.00
2022-09-21T00:29:01.830Z,27.90
2022-09-21T00:31:33.949Z,27.80
2022-09-21T00:34:08.457Z,27.80
2022-09-21T00:36:39.377Z,27.70
2022-09-21T00:39:10.208Z,27.60
2022-09-21T00:41:42.756Z,27.60
2022-09-21T00:44:31.557Z,27.60
2022-09-21T00:47:08.174Z,27.50
2022-09-21T00:49:39.964Z,27.50
2022-09-21T00:52:12.899Z,27.30
2022-09-21T00:54:48.234Z,27.10
2022-09-21T00:57:23.433Z,26.90
2022-09-21T00:59:58.272Z,27.00
2022-09-21T01:02:30.413Z,26.90
2022-09-21T01:05:01.557Z,26.90
2022-09-21T01:07:36.610Z,26.90
2022-09-21T01:10:12.777Z,26.90
2022-09-21T01:12:58.705Z,26.90
2022-09-21T01:15:42.904Z,26.90
2022-09-21T01:18:20.552Z,26.90
2022-09-21T01:21:20.570Z,26.80
2022-09-21T01:24:13.498Z,26.80
2022-09-21T01:27:08.166Z,26.60
2022-09-21T01:29:45.705Z,26.40
2022-09-21T01:32:21.539Z,26.20
2022-09-21T01:34:58.058Z,26.00
2022-09-21T01:37:34.506Z,25.80
2022-09-21T01:40:12.229Z,25.70
2022-09-21T01:42:44.297Z,25.50
2022-09-21T01:45:20.819Z,25.30
2022-09-21T01:47:53.925Z,25.10
2022-09-21T01:50:25.819Z,25.00
2022-09-21T01:53:03.237Z,24.90
2022-09-21T01:55:40.651Z,24.70
2022-09-21T01:58:22.594Z,24.50
2022-09-21T02:00:59.422Z,24.30
2022-09-21T02:03:33.833Z,24.10
2022-09-21T02:06:05.942Z,24.00
2022-09-21T02:08:37.274Z,23.90
2022-09-21T02:11:09.519Z,23.80
2022-09-21T02:13:42.950Z,23.60
2022-09-21T02:16:39.717Z,23.50
2022-09-21T02:19:17.341Z,23.20
2022-09-21T02:22:05.918Z,23.00
2022-09-21T02:24:44.039Z,22.80
2022-09-21T02:27:25.154Z,22.60
2022-09-21T02:30:02.310Z,22.40
2022-09-21T02:32:40.298Z,22.30
2022-09-21T02:35:18.035Z,22.20
2022-09-21T02:37:54.309Z,22.00
2022-09-21T02:40:33.174Z,21.90
2022-09-21T02:43:06.880Z,21.70
2022-09-21T02:45:43.774Z,21.60
2022-09-21T02:48:21.186Z,21.50
2022-09-21T02:50:56.250Z,21.40
2022-09-21T02:53:30.569Z,21.40
2022-09-21T02:56:03.773Z,21.40
2022-09-21T02:58:37.154Z,21.30
2022-09-21T03:01:10.588Z,21.20
2022-09-21T03:03:44.356Z,21.00
2022-09-21T03:06:15.151Z,20.90
2022-09-21T03:08:45.946Z,20.90
2022-09-21T03:11:20.647Z,20.90
2022-09-21T03:13:51.399Z,20.80
2022-09-21T03:16:23.245Z,20.70
2022-09-21T03:18:56.310Z,20.70
2022-09-21T03:21:27.140Z,20.60
2022-09-21T03:23:57.858Z,20.50
2022-09-21T03:26:28.670Z,20.40
2022-09-21T03:28:59.502Z,20.30
2022-09-21T03:31:30.313Z,20.30
2022-09-21T03:34:02.780Z,20.20
2022-09-21T03:36:33.528Z,20.20
2022-09-21T03:39:04.270Z,20.10
2022-09-21T03:41:35.773Z,20.10
2022-09-21T03:44:06.692Z,20.20
2022-09-21T03:46:37.685Z,20.20
2022-09-21T03:49:10.163Z,20.10
2022-09-21T03:51:41.501Z,20.00
2022-09-21T03:54:12.671Z,20.00
2022-09-21T03:56:43.477Z,19.90
2022-09-21T03:59:14.594Z,19.80
2022-09-21T04:01:45.539Z,19.70
2022-09-21T04:04:18.191Z,19.60
2022-09-21T04:06:48.953Z,19.60
2022-09-21T04:09:19.733Z,19.60
2022-09-21T04:11:50.619Z,19.50
2022-09-21T04:14:21.399Z,19.50
2022-09-21T04:16:52.858Z,19.40
2022-09-21T04:19:25.272Z,19.40
2022-09-21T04:21:56.941Z,19.30
2022-09-21T04:24:28.033Z,19.20
2022-09-21T04:26:58.789Z,19.20
2022-09-21T04:29:29.536Z,19.20
2022-09-21T04:32:00.297Z,19.20
2022-09-21T04:34:32.847Z,19.10
2022-09-21T04:37:03.642Z,19.20
2022-09-21T04:39:34.395Z,19.10
2022-09-21T04:42:05.340Z,19.10
2022-09-21T04:44:36.137Z,19.20
2022-09-21T04:47:07.234Z,19.20
2022-09-21T04:49:39.662Z,19.20
2022-09-21T04:52:10.406Z,19.20
2022-09-21T04:54:44.073Z,19.30
2022-09-21T04:57:15.094Z,19.30
2022-09-21T04:59:45.860Z,19.20
2022-09-21T05:02:16.626Z,19.10
2022-09-21T05:04:51.013Z,19.00
2022-09-21T05:07:22.082Z,19.00
2022-09-21T05:10:07.762Z,19.00
2022-09-21T05:12:41.042Z,19.10
2022-09-21T05:15:13.297Z,19.10
2022-09-21T05:17:44.282Z,19.00
2022-09-21T05:20:16.702Z,19.00
2022-09-21T05:22:50.431Z,19.20
2022-09-21T05:25:21.283Z,19.40
2022-09-21T05:27:52.007Z,19.50
2022-09-21T05:30:23.871Z,19.50
2022-09-21T05:33:04.518Z,19.60
2022-09-21T05:35:41.219Z,19.60
2022-09-21T05:38:17.365Z,19.60
2022-09-21T05:40:51.014Z,19.60
2022-09-21T05:43:22.361Z,19.50
2022-09-21T05:45:58.301Z,19.40
2022-09-21T05:48:32.667Z,19.20
2022-09-21T05:51:09.890Z,19.20
2022-09-21T05:53:51.813Z,19.20
2022-09-21T05:56:35.824Z,19.10
2022-09-21T05:59:17.945Z,19.00
2022-09-21T06:02:00.407Z,18.90
2022-09-21T06:04:31.855Z,18.80
2022-09-21T06:07:04.255Z,18.60
2022-09-21T06:09:35.027Z,18.50
2022-09-21T06:12:06.146Z,18.40
2022-09-21T06:14:36.917Z,18.30
2022-09-21T06:17:07.921Z,18.20
2022-09-21T06:19:38.837Z,18.10
2022-09-21T06:22:11.233Z,18.00
2022-09-21T06:24:41.980Z,17.90
2022-09-21T06:27:12.754Z,17.90
2022-09-21T06:29:43.549Z,17.90
2022-09-21T06:32:14.318Z,17.80
2022-09-21T06:34:45.296Z,17.80
2022-09-21T06:37:17.690Z,17.80
2022-09-21T06:39:48.449Z,17.80
2022-09-21T06:42:19.230Z,17.70
2022-09-21T06:44:49.986Z,17.50
2022-09-21T06:47:20.772Z,17.50
2022-09-21T06:49:51.473Z,17.50
2022-09-21T06:52:23.877Z,17.50
2022-09-21T06:54:54.602Z,17.40
2022-09-21T06:57:25.926Z,17.30
2022-09-21T06:59:56.667Z,17.20
2022-09-21T07:02:27.476Z,17.20
2022-09-21T07:04:59.433Z,17.10
2022-09-21T07:07:32.684Z,17.10
2022-09-21T07:10:07.189Z,17.10
2022-09-21T07:12:38.921Z,17.10
2022-09-21T07:15:11.091Z,17.00
2022-09-21T07:17:51.817Z,16.90
2022-09-21T07:20:22.897Z,16.80
2022-09-21T07:22:55.267Z,16.80
2022-09-21T07:25:25.979Z,16.70
2022-09-21T07:27:56.696Z,16.60
2022-09-21T07:30:28.615Z,16.70
2022-09-21T07:32:59.490Z,16.60
2022-09-21T07:35:30.254Z,16.60
2022-09-21T07:38:04.527Z,16.60
2022-09-21T07:40:36.604Z,16.60
2022-09-21T07:43:07.377Z,16.50
2022-09-21T07:45:38.179Z,16.40
2022-09-21T07:48:09.830Z,16.30
2022-09-21T07:50:40.568Z,16.30
2022-09-21T07:53:12.963Z,16.30
2022-09-21T07:55:43.667Z,16.20
2022-09-21T07:58:31.365Z,16.10
2022-09-21T08:01:02.135Z,16.10
2022-09-21T08:03:32.864Z,16.00
2022-09-21T08:06:03.937Z,16.00
2022-09-21T08:08:36.596Z,15.90
2022-09-21T08:11:08.401Z,15.80
2022-09-21T08:13:39.193Z,15.90
2022-09-21T08:16:10.293Z,15.90
2022-09-21T08:18:41.629Z,15.90
2022-09-21T08:21:14.305Z,15.80
2022-09-21T08:23:46.817Z,15.80
2022-09-21T08:26:20.095Z,15.70
2022-09-21T08:28:51.975Z,15.70
2022-09-21T08:31:25.479Z,15.60
2022-09-21T08:33:57.886Z,15.50
2022-09-21T08:36:28.737Z,15.40
2022-09-21T08:39:01.218Z,15.40
2022-09-21T08:41:49.159Z,15.40
2022-09-21T08:44:24.074Z,15.30
2022-09-21T08:47:09.033Z,15.20
2022-09-21T08:49:42.380Z,15.30
2022-09-21T08:52:17.286Z,15.30
2022-09-21T08:54:55.575Z,15.30
2022-09-21T08:57:31.681Z,15.30
2022-09-21T09:00:03.830Z,15.30
2022-09-21T09:02:47.764Z,15.30
2022-09-21T09:05:37.507Z,15.20
2022-09-21T09:08:31.031Z,15.20
2022-09-21T09:11:17.898Z,15.30
2022-09-21T09:14:31.430Z,15.20
2022-09-21T09:17:18.769Z,15.20
2022-09-21T09:19:53.691Z,15.10
2022-09-21T09:22:29.215Z,15.00
2022-09-21T09:25:05.123Z,14.90
2022-09-21T09:27:41.970Z,14.80
2022-09-21T09:30:20.205Z,14.80
2022-09-21T09:32:59.323Z,14.90
2022-09-21T09:35:33.998Z,14.80
2022-09-21T09:38:13.930Z,14.80
2022-09-21T09:41:08.584Z,14.70
2022-09-21T09:43:51.358Z,14.70
2022-09-21T09:46:30.672Z,14.60
2022-09-21T09:49:21.321Z,14.60
2022-09-21T09:51:52.968Z,14.50
2022-09-21T09:54:27.417Z,14.50
2022-09-21T09:56:58.152Z,14.50
2022-09-21T09:59:37.722Z,14.30
2022-09-21T10:02:10.995Z,14.30
2022-09-21T10:05:04.557Z,14.20
2022-09-21T10:07:40.442Z,14.10
2022-09-21T10:10:27.312Z,14.10
2022-09-21T10:13:00.340Z,14.20
2022-09-21T10:15:33.230Z,14.10
2022-09-21T10:18:10.110Z,14.00
2022-09-21T10:20:40.869Z,13.90
2022-09-21T10:23:18.381Z,13.80
2022-09-21T10:25:57.562Z,13.80
2022-09-21T10:28:29.218Z,13.80
2022-09-21T10:31:23.221Z,13.80
2022-09-21T10:33:57.004Z,13.70
2022-09-21T10:36:36.293Z,13.70
2022-09-21T10:39:31.499Z,13.70
2022-09-21T10:42:05.918Z,13.80
2022-09-21T10:44:43.226Z,13.70
2022-09-21T10:47:24.766Z,13.70
2022-09-21T10:49:57.723Z,13.70
2022-09-21T10:52:37.972Z,13.50
2022-09-21T10:55:13.011Z,13.50
2022-09-21T10:57:46.062Z,13.50
2022-09-21T11:00:36.178Z,13.60
2022-09-21T11:03:42.433Z,13.60
2022-09-21T11:06:17.852Z,13.60
2022-09-21T11:08:56.157Z,13.50
2022-09-21T11:11:43.877Z,13.50
2022-09-21T11:14:22.674Z,13.50
2022-09-21T11:16:59.117Z,13.40
2022-09-21T11:19:40.009Z,13.40
2022-09-21T11:22:17.827Z,13.40
2022-09-21T11:24:54.422Z,13.30
2022-09-21T11:27:31.398Z,13.30
2022-09-21T11:30:09.089Z,13.30
2022-09-21T11:33:00.528Z,13.30
2022-09-21T11:35:52.175Z,13.30
2022-09-21T11:38:34.639Z,13.20
2022-09-21T11:41:24.731Z,13.20
2022-09-21T11:44:24.196Z,13.10
2022-09-21T11:47:06.510Z,13.00
2022-09-21T11:50:07.736Z,13.10
2022-09-21T11:52:57.966Z,13.10
2022-09-21T11:56:01.019Z,13.00
2022-09-21T11:58:39.779Z,12.90
2022-09-21T12:01:21.666Z,12.90
2022-09-21T12:04:08.270Z,13.00
2022-09-21T12:06:52.541Z,13.00
2022-09-21T12:09:47.910Z,13.20
2022-09-21T12:12:22.871Z,13.30
2022-09-21T12:15:02.186Z,13.40
2022-09-21T12:17:43.434Z,13.50
2022-09-21T12:20:20.617Z,13.60
2022-09-21T12:22:54.953Z,13.70
2022-09-21T12:25:30.506Z,13.70
2022-09-21T12:28:09.421Z,13.80
2022-09-21T12:30:44.414Z,13.80
2022-09-21T12:33:22.166Z,13.90
2022-09-21T12:35:57.991Z,13.90
2022-09-21T12:38:34.688Z,14.00
2022-09-21T12:41:16.629Z,14.10
2022-09-21T12:43:51.962Z,14.00
2022-09-21T12:46:26.542Z,14.00
2022-09-21T12:48:57.883Z,13.90
2022-09-21T12:51:35.352Z,13.90
2022-09-21T12:54:15.391Z,13.80
2022-09-21T12:56:54.462Z,13.70
2022-09-21T12:59:37.256Z,13.60
2022-09-21T13:02:20.852Z,13.60
2022-09-21T13:05:07.380Z,13.50
2022-09-21T13:08:13.097Z,13.50
2022-09-21T13:10:51.779Z,13.40
2022-09-21T13:13:36.985Z,13.40
2022-09-21T13:16:10.077Z,13.30
2022-09-21T13:18:42.227Z,13.10
2022-09-21T13:21:21.004Z,13.20
2022-09-21T13:23:58.444Z,13.30
2022-09-21T13:26:37.089Z,13.30
2022-09-21T13:29:35.422Z,13.30
2022-09-21T13:32:23.405Z,13.30
2022-09-21T13:34:54.343Z,13.20
2022-09-21T13:37:31.670Z,13.10
2022-09-21T13:40:43.664Z,13.00
2022-09-21T13:43:26.833Z,13.10
2022-09-21T13:46:02.692Z,13.10
2022-09-21T13:48:33.775Z,13.10
2022-09-21T13:51:10.966Z,13.00
2022-09-21T13:53:43.967Z,13.10
2022-09-21T13:56:23.416Z,13.00
2022-09-21T13:58:56.161Z,13.00
2022-09-21T14:01:49.251Z,13.10
2022-09-21T14:04:26.994Z,13.10
2022-09-21T14:06:59.834Z,13.10
2022-09-21T14:09:32.902Z,13.10
2022-09-21T14:12:08.203Z,13.00
2022-09-21T14:14:40.768Z,13.00
2022-09-21T14:17:37.687Z,12.90
2022-09-21T14:20:30.407Z,13.00
2022-09-21T14:23:31.911Z,13.10
2022-09-21T14:26:03.673Z,13.10
2022-09-21T14:28:42.718Z,13.10
2022-09-21T14:31:20.262Z,13.10
2022-09-21T14:33:55.829Z,13.30
2022-09-21T14:36:38.108Z,13.30
2022-09-21T14:39:10.523Z,13.40
2022-09-21T14:41:43.926Z,13.50
2022-09-21T14:44:22.602Z,13.60
2022-09-21T14:47:29.419Z,13.70
2022-09-21T14:50:20.437Z,13.90
2022-09-21T14:53:28.852Z,14.00
2022-09-21T14:56:12.690Z,14.10
2022-09-21T14:58:58.743Z,14.30
2022-09-21T15:01:42.203Z,14.40
2022-09-21T15:04:45.267Z,14.50
2022-09-21T15:07:48.666Z,14.60
2022-09-21T15:10:46.086Z,14.80
2022-09-21T15:13:44.053Z,15.00
2022-09-21T15:16:27.701Z,15.20
2022-09-21T15:19:17.057Z,15.30
2022-09-21T15:21:49.012Z,15.60
2022-09-21T15:24:28.065Z,15.80
2022-09-21T15:27:07.157Z,15.90
2022-09-21T15:29:39.024Z,16.10
2022-09-21T15:32:10.937Z,16.20
2022-09-21T15:34:41.726Z,16.30
2022-09-21T15:37:18.908Z,16.40
2022-09-21T15:40:03.460Z,16.40
2022-09-21T15:42:34.527Z,16.60
2022-09-21T15:45:17.997Z,16.70
2022-09-21T15:47:48.955Z,16.90
2022-09-21T15:50:21.521Z,16.80
2022-09-21T15:52:57.805Z,17.00
2022-09-21T15:55:32.217Z,17.40
2022-09-21T15:58:05.150Z,17.50
2022-09-21T16:00:37.508Z,17.70
2022-09-21T16:03:10.634Z,18.00
2022-09-21T16:05:49.308Z,18.20
2022-09-21T16:08:33.892Z,18.20
2022-09-21T16:11:23.918Z,18.20
2022-09-21T16:14:20.446Z,18.40
2022-09-21T16:17:09.925Z,18.60
2022-09-21T16:19:44.623Z,18.70
2022-09-21T16:22:16.930Z,19.10
2022-09-21T16:24:56.171Z,19.40
2022-09-21T16:27:30.756Z,19.50
2022-09-21T16:30:03.163Z,19.50
2022-09-21T16:32:35.303Z,20.00
2022-09-21T16:35:30.121Z,20.00
2022-09-21T16:38:02.137Z,19.90
2022-09-21T16:40:33.129Z,19.90
2022-09-21T16:43:06.130Z,19.60
2022-09-21T16:45:38.222Z,19.70
2022-09-21T16:48:09.206Z,19.80
2022-09-21T16:50:39.992Z,19.70
2022-09-21T16:53:10.749Z,19.60
2022-09-21T16:55:41.486Z,19.80
2022-09-21T16:58:14.378Z,19.90
2022-09-21T17:00:46.412Z,19.90
2022-09-21T17:03:17.567Z,20.20
2022-09-21T17:05:48.425Z,20.20
2022-09-21T17:08:19.312Z,20.20
2022-09-21T17:10:50.102Z,20.10
2022-09-21T17:13:22.505Z,20.00
2022-09-21T17:15:54.213Z,20.70
2022-09-21T17:18:24.963Z,21.20
2022-09-21T17:20:55.718Z,22.00
2022-09-21T17:23:29.973Z,23.10
2022-09-21T17:26:00.706Z,24.30
2022-09-21T17:28:33.352Z,25.40
2022-09-21T17:31:08.754Z,25.70
2022-09-21T17:33:39.518Z,26.30
2022-09-21T17:36:14.104Z,26.90
2022-09-21T17:38:44.897Z,27.00
2022-09-21T17:41:25.374Z,26.90
2022-09-21T17:44:12.414Z,27.30
2022-09-21T17:46:49.951Z,27.60
2022-09-21T17:49:21.354Z,28.50
2022-09-21T17:52:09.298Z,28.40
2022-09-21T17:54:40.738Z,28.70
2022-09-21T17:57:21.885Z,29.60
2022-09-21T17:59:58.719Z,29.00
2022-09-21T18:02:29.610Z,29.20
2022-09-21T18:05:05.878Z,28.40
2022-09-21T18:07:37.287Z,27.70
2022-09-21T18:10:09.566Z,28.00
2022-09-21T18:13:00.589Z,27.90
2022-09-21T18:15:39.106Z,28.10
2022-09-21T18:18:20.376Z,27.80
2022-09-21T18:21:03.020Z,27.40
2022-09-21T18:23:42.062Z,27.30
2022-09-21T18:26:17.584Z,28.20
2022-09-21T18:28:58.730Z,28.70
2022-09-21T18:31:51.940Z,28.50
2022-09-21T18:34:53.539Z,28.90
2022-09-21T18:37:34.953Z,28.40
2022-09-21T18:40:19.341Z,28.40
2022-09-21T18:42:56.517Z,28.60
2022-09-21T18:45:32.647Z,29.30
2022-09-21T18:48:23.848Z,30.30
2022-09-21T18:51:03.185Z,30.70
2022-09-21T18:53:46.818Z,30.40
2022-09-21T18:56:18.245Z,30.20
2022-09-21T18:58:50.354Z,30.30
2022-09-21T19:01:23.439Z,29.70
2022-09-21T19:03:56.602Z,30.10
2022-09-21T19:06:42.765Z,29.90
2022-09-21T19:09:24.038Z,30.50
2022-09-21T19:12:00.732Z,30.20
2022-09-21T19:14:39.208Z,31.30
2022-09-21T19:17:26.379Z,31.00
2022-09-21T19:20:07.354Z,30.90
2022-09-21T19:22:49.098Z,30.60
2022-09-21T19:25:28.994Z,30.30
2022-09-21T19:28:03.931Z,30.50
2022-09-21T19:30:35.321Z,30.50
2022-09-21T19:33:45.634Z,30.50
2022-09-21T19:36:14.928Z,30.50
2022-09-21T19:38:46.052Z,29.50
2022-09-21T19:41:38.906Z,29.20
2022-09-21T19:44:22.630Z,29.60
2022-09-21T19:47:03.511Z,29.20
2022-09-21T19:49:54.771Z,29.40
2022-09-21T19:52:32.447Z,29.60
2022-09-21T19:55:20.782Z,29.70
2022-09-21T19:58:09.023Z,29.50
2022-09-21T20:00:40.202Z,29.10
2022-09-21T20:03:18.517Z,28.90
2022-09-21T20:05:55.707Z,28.90
2022-09-21T20:08:34.900Z,29.00
2022-09-21T20:11:16.354Z,29.00
2022-09-21T20:14:07.135Z,29.20
2022-09-21T20:16:48.663Z,29.40
2022-09-21T20:19:28.494Z,28.90
2022-09-21T20:22:05.687Z,28.70
2022-09-21T20:24:51.840Z,29.00
2022-09-21T20:27:35.482Z,29.00
2022-09-21T20:30:07.327Z,29.40
2022-09-21T20:32:39.151Z,29.20
2022-09-21T20:35:18.479Z,28.80
2022-09-21T20:37:49.304Z,28.20
2022-09-21T20:40:25.666Z,28.30
2022-09-21T20:43:00.533Z,28.40
2022-09-21T20:45:33.153Z,28.40
2022-09-21T20:48:13.809Z,28.50
2022-09-21T20:50:45.658Z,28.60
2022-09-21T20:53:16.626Z,28.40
2022-09-21T20:55:56.557Z,28.60
2022-09-21T20:58:27.366Z,28.10
2022-09-21T21:00:59.145Z,28.00
2022-09-21T21:03:30.139Z,28.40
2022-09-21T21:06:13.450Z,28.50
2022-09-21T21:08:44.393Z,28.40
2022-09-21T21:11:16.843Z,28.20
2022-09-21T21:13:48.274Z,28.00
2022-09-21T21:16:19.061Z,27.70
2022-09-21T21:18:49.809Z,27.50
2022-09-21T21:21:20.592Z,27.40
2022-09-21T21:24:09.521Z,27.50
2022-09-21T21:27:01.423Z,27.10
2022-09-21T21:29:33.059Z,27.10
2022-09-21T21:32:04.603Z,27.00
2022-09-21T21:34:35.402Z,26.90
2022-09-21T21:37:06.211Z,27.00
2022-09-21T21:39:39.864Z,27.10
2022-09-21T21:42:12.822Z,27.10
2022-09-21T21:44:43.605Z,27.10
2022-09-21T21:47:38.768Z,27.20
2022-09-21T21:50:05.104Z,27.40
2022-09-21T21:52:35.888Z,27.60
2022-09-21T21:55:07.041Z,27.70
2022-09-21T21:57:39.446Z,27.70
2022-09-21T22:00:11.914Z,27.40
2022-09-21T22:02:42.754Z,27.10
2022-09-21T22:05:13.625Z,27.10
2022-09-21T22:07:44.397Z,27.30
2022-09-21T22:10:15.269Z,27.10
2022-09-21T22:12:47.625Z,27.20
2022-09-21T22:15:19.332Z,27.30
2022-09-21T22:17:50.082Z,27.30
2022-09-21T22:20:20.812Z,27.00
2022-09-21T22:22:51.609Z,26.90
2022-09-21T22:25:22.416Z,26.80
2022-09-21T22:27:54.950Z,26.70
2022-09-21T22:30:25.800Z,27.00
2022-09-21T22:32:56.664Z,27.00
2022-09-21T22:35:27.561Z,26.90
2022-09-21T22:37:58.407Z,26.80
2022-09-21T22:40:29.290Z,27.10
2022-09-21T22:43:01.837Z,26.90
2022-09-21T22:45:32.745Z,26.70
2022-09-21T22:48:03.678Z,26.80
2022-09-21T22:50:34.489Z,26.80
2022-09-21T22:53:05.552Z,26.50
2022-09-21T22:55:36.361Z,26.50
2022-09-21T22:58:09.385Z,26.50
2022-09-21T23:00:40.324Z,26.30
2022-09-21T23:03:12.820Z,26.10
2022-09-21T23:05:43.650Z,26.10
2022-09-21T23:08:14.477Z,26.00
2022-09-21T23:10:45.286Z,25.80
2022-09-21T23:13:17.914Z,25.70
2022-09-21T23:15:49.025Z,25.60
2022-09-21T23:18:20.997Z,25.30
2022-09-21T23:21:00.671Z,25.00
2022-09-21T23:23:33.177Z,24.90
2022-09-21T23:26:11.358Z,24.80
2022-09-21T23:28:45.618Z,24.70
2022-09-21T23:31:17.721Z,24.70
2022-09-21T23:33:50.542Z,24.70
2022-09-21T23:36:22.879Z,24.70
2022-09-21T23:38:53.956Z,24.60
2022-09-21T23:41:26.356Z,24.60
2022-09-21T23:43:59.348Z,24.50
2022-09-21T23:46:33.961Z,24.30
2022-09-21T23:49:05.275Z,24.30
2022-09-21T23:51:36.134Z,24.30
2022-09-21T23:54:07.511Z,24.30
2022-09-21T23:56:38.618Z,24.30
2022-09-21T23:59:11.427Z,24.20
